WetterOnline ( https://www.wetteronline.de )

Wetter aktuell Reschenpass

Aktuelles Wetter: Reschenpass (1461m)

6-stündlich | Neueste Meldungen
Ortszeit Temperatur Wetter
Sa, 30.05. 8:00 5.6° C leicht bewölkt
Sa, 30.05. 2:00 6.8° C wolkenlos
Fr, 29.05. 20:00 11.8° C wolkenlos
Fr, 29.05. 14:00 14.6° C leicht bewölkt
Fr, 29.05. 8:00 4.4° C fast wolkenlos
Fr, 29.05. 2:00 6.2° C wolkenlos
Do, 28.05. 20:00 9.2° C wolkig
Do, 28.05. 14:00 14.6° C wolkig
Ortszeit Temperatur Wetter
Sa, 30.05. 11:00 11.0° C wolkig
Sa, 30.05. 10:55 11° C bewölkt
Sa, 30.05. 10:00 9.0° C leicht bewölkt
Sa, 30.05. 9:55 9° C leicht bewölkt
Sa, 30.05. 9:00 7.8° C leicht bewölkt
Sa, 30.05. 8:55 8° C leicht bewölkt
Sa, 30.05. 8:00 5.6° C leicht bewölkt
Sa, 30.05. 7:55 6° C leicht bewölkt
Sa, 30.05. 7:00 5.0° C wolkenlos
Ortszeit Relative Feuchte Sichtweite
Sa, 30.05. 8:00 92% 10 km
Sa, 30.05. 2:00 79% 10 km
Fr, 29.05. 20:00 47% 10 km
Fr, 29.05. 14:00 46% 10 km
Fr, 29.05. 8:00 80% 20 km
Fr, 29.05. 2:00 91% 10 km
Do, 28.05. 20:00 84% 20 km
Do, 28.05. 14:00 52% 20 km
Ortszeit Relative Feuchte Sichtweite
Sa, 30.05. 11:00 72% 15 km
Sa, 30.05. 10:55 71% >10 km
Sa, 30.05. 10:00 75% 15 km
Sa, 30.05. 9:55 76% >10 km
Sa, 30.05. 9:00 89% 10 km
Sa, 30.05. 8:55 87% >10 km
Sa, 30.05. 8:00 92% 10 km
Sa, 30.05. 7:55 87% >10 km
Sa, 30.05. 7:00 94% 10 km
Ortszeit Niederschlagsmenge Niederschlagsart
Sa, 30.05. 8:00 0.0 l/m2 in 12 Std. -
Sa, 30.05. 2:00 0.0 l/m2 in 6 Std. -
Fr, 29.05. 20:00 0.0 l/m2 in 12 Std. -
Fr, 29.05. 14:00 0.0 l/m2 in 6 Std. -
Fr, 29.05. 8:00 0.0 l/m2 in 12 Std. -
Fr, 29.05. 2:00 0.0 l/m2 in 6 Std. -
Do, 28.05. 20:00 0.1 l/m2 in 12 Std. Regen
Do, 28.05. 14:00 0.0 l/m2 in 6 Std. -
Ortszeit Niederschlagsmenge Niederschlagsart
Sa, 30.05. 11:00 keine Meldung -
Sa, 30.05. 10:55 keine Meldung -
Sa, 30.05. 10:00 keine Meldung -
Sa, 30.05. 9:55 keine Meldung -
Sa, 30.05. 9:00 keine Meldung -
Sa, 30.05. 8:55 keine Meldung -
Sa, 30.05. 8:00 keine Meldung -
Sa, 30.05. 7:55 keine Meldung -
Sa, 30.05. 7:00 keine Meldung -
Ortszeit Stärke Spitze Richtung
km/h Bft. km/h Grad Sektor
Sa, 30.05. 8:00 6 1 - 20° N
Sa, 30.05. 2:00 6 1 - 350° N
Fr, 29.05. 20:00 9 2 - 10° N
Fr, 29.05. 14:00 11 2 - 360° N
Fr, 29.05. 8:00 7 2 - 60° NO
Fr, 29.05. 2:00 9 2 - 20° N
Do, 28.05. 20:00 7 2 - 30° NO
Do, 28.05. 14:00 15 3 - 360° N
Ortszeit Stärke Spitze Richtung
km/h Bft. km/h Grad Sektor
Sa, 30.05. 11:00 17 3 - 10° N
Sa, 30.05. 10:55 17 3 35 10° N
Sa, 30.05. 10:00 19 3 - 30° NO
Sa, 30.05. 9:55 19 3 39 30° NO
Sa, 30.05. 9:00 9 2 - 20° N
Sa, 30.05. 8:55 9 2 - 20° N
Sa, 30.05. 8:00 6 1 - 20° N
Sa, 30.05. 7:55 6 1 - 20° N
Sa, 30.05. 7:00 6 1 - 30° NO
Ortszeit Untergrenze Bedeckung Gattung
total tief tief mittel hoch
Sa, 30.05. 8:00 900 m 4/8 4/8 Cu - -
Sa, 30.05. 2:00 - 0/8 0/8 - - -
Fr, 29.05. 20:00 - 0/8 0/8 - - -
Fr, 29.05. 14:00 900 m 2/8 2/8 Cu - -
Fr, 29.05. 8:00 1200 m 1/8 1/8 Cu - -
Fr, 29.05. 2:00 - 0/8 0/8 - - -
Do, 28.05. 20:00 300 m 6/8 6/8 Sc - -
Do, 28.05. 14:00 1200 m 5/8 5/8 Cu - -
Ortszeit Bedeckungsgrad in Achtel und Wolkenuntergrenze
Sa, 30.05. 11:00 5(750m)
Sa, 30.05. 10:55 5-7(750m)
Sa, 30.05. 10:00 4(750m)
Sa, 30.05. 9:55 3-4(750m)
Sa, 30.05. 9:00 3(900m)
Sa, 30.05. 8:55 3-4(900m)
Sa, 30.05. 8:00 4(900m)
Sa, 30.05. 7:55 3-4(900m)
Sa, 30.05. 7:00 keine Wolken
Ortszeit Stationsdruck (hPa) Tendenz (hPa in 3 Std.)
Sa, 30.05. 8:00 855 - 0,8
Sa, 30.05. 2:00 857 + 1,0
Fr, 29.05. 20:00 855 - 0,8
Fr, 29.05. 14:00 857 - 0,2
Fr, 29.05. 8:00 859 - 0,8
Fr, 29.05. 2:00 860 - 0,6
Do, 28.05. 20:00 861 + 0,8
Do, 28.05. 14:00 862 - 1,0
Ortszeit Stationsdruck (hPa) Tendenz (hPa in 3 Std.)
Sa, 30.05. 11:00 854 - 1,3
Sa, 30.05. 10:55 - keine Meldung
Sa, 30.05. 10:00 854 - 0,9
Sa, 30.05. 9:55 - keine Meldung
Sa, 30.05. 9:00 854 - 1,8
Sa, 30.05. 8:55 - keine Meldung
Sa, 30.05. 8:00 855 - 0,8
Sa, 30.05. 7:55 - keine Meldung
Sa, 30.05. 7:00 855 - 1,0
Ortszeit Schneehöhe (cm)
Sa, 30.05. 8:00 -
Sa, 30.05. 2:00 -
Fr, 29.05. 20:00 -
Fr, 29.05. 14:00 -
Fr, 29.05. 8:00 0
Fr, 29.05. 2:00 -
Do, 28.05. 20:00 -
Do, 28.05. 14:00 -
Ortszeit Schneehöhe (cm)
Sa, 30.05. 11:00 -
Sa, 30.05. 10:55 -
Sa, 30.05. 10:00 -
Sa, 30.05. 9:55 -
Sa, 30.05. 9:00 -
Sa, 30.05. 8:55 -
Sa, 30.05. 8:00 -
Sa, 30.05. 7:55 -
Sa, 30.05. 7:00 -
Link zu dieser Seite / Seite empfehlen

Das Wetter in ...